Time;durP1;ratioP1;P1;durP2;ratioP2;P2;SDS_P1;SDS_P2;PMS_P1;PMS_P2;Temp;Humidity;BMP_temperature;BMP_pressure;BME280_temperature;BME280_humidity;BME280_pressure;Samples;Min_cycle;Max_cycle;Signal;HPM_P1;HPM_P2
2022/03/15 00:02:16;;;;;;;17.00;10.48;;;8.60;77.60;;;;;;5023191;28;20091;-77
2022/03/15 00:04:41;;;;;;;17.83;11.23;;;8.60;77.70;;;;;;5027774;28;20045;-76
2022/03/15 00:07:13;;;;;;;18.88;10.35;;;8.60;77.90;;;;;;5023549;28;20043;-77
2022/03/15 00:09:39;;;;;;;15.88;10.45;;;8.50;78.10;;;;;;5025771;28;20075;-78
2022/03/15 00:12:08;;;;;;;15.45;10.35;;;8.50;78.30;;;;;;5029301;28;20395;-78
2022/03/15 00:14:37;;;;;;;15.93;9.18;;;8.50;78.40;;;;;;5024692;28;20040;-78
2022/03/15 00:17:05;;;;;;;16.98;10.20;;;8.50;78.50;;;;;;5021746;28;20047;-77
2022/03/15 00:19:31;;;;;;;15.07;10.07;;;8.50;78.50;;;;;;5025528;28;20036;-77
2022/03/15 00:21:57;;;;;;;16.70;9.82;;;8.50;78.60;;;;;;5024705;28;20062;-77
2022/03/15 00:24:23;;;;;;;16.58;9.57;;;8.40;78.70;;;;;;5019705;28;20044;-75
2022/03/15 00:26:48;;;;;;;20.15;10.30;;;8.40;78.80;;;;;;5022529;28;20038;-76
2022/03/15 00:29:18;;;;;;;19.73;10.30;;;8.50;78.80;;;;;;5026091;28;20412;-77
2022/03/15 00:31:44;;;;;;;16.77;10.02;;;8.40;78.90;;;;;;5019343;28;20428;-76
2022/03/15 00:34:11;;;;;;;17.25;10.40;;;8.40;79.00;;;;;;5022939;28;20288;-78
2022/03/15 00:36:37;;;;;;;18.65;10.52;;;8.40;79.00;;;;;;5032509;28;20045;-76
2022/03/15 00:39:06;;;;;;;17.73;10.52;;;8.30;79.10;;;;;;5028705;28;20021;-77
2022/03/15 00:41:32;;;;;;;16.50;10.30;;;8.30;79.20;;;;;;5021856;28;20033;-76
2022/03/15 00:43:58;;;;;;;15.30;10.45;;;8.30;79.20;;;;;;5028932;28;20239;-76
2022/03/15 00:46:24;;;;;;;14.30;10.32;;;8.20;79.10;;;;;;5022016;28;20513;-77
2022/03/15 00:48:50;;;;;;;18.67;11.07;;;8.20;79.20;;;;;;5025885;28;20120;-75
2022/03/15 00:51:15;;;;;;;21.88;10.77;;;8.20;79.30;;;;;;5034477;28;20068;-77
2022/03/15 00:53:42;;;;;;;19.88;11.10;;;8.20;79.30;;;;;;5021377;28;20124;-78
2022/03/15 00:56:07;;;;;;;16.95;10.73;;;8.20;79.20;;;;;;5038831;28;20048;-77
2022/03/15 00:58:33;;;;;;;19.02;11.43;;;8.20;79.20;;;;;;5042082;28;20033;-76
2022/03/15 01:00:59;;;;;;;17.38;10.30;;;8.20;79.20;;;;;;5046949;28;20191;-77
2022/03/15 01:03:25;;;;;;;17.08;10.45;;;8.20;79.30;;;;;;5043003;28;20101;-79
2022/03/15 01:05:51;;;;;;;16.42;10.18;;;8.20;79.30;;;;;;5042799;28;20034;-78
2022/03/15 01:08:17;;;;;;;14.48;9.48;;;8.20;79.40;;;;;;5032133;28;20114;-75
2022/03/15 01:10:43;;;;;;;15.65;11.20;;;8.20;79.50;;;;;;5020293;28;20738;-74
2022/03/15 01:13:09;;;;;;;17.38;10.77;;;8.10;79.50;;;;;;5017556;28;20084;-76
2022/03/15 01:15:41;;;;;;;21.00;11.32;;;8.10;79.50;;;;;;5019954;28;20099;-76
2022/03/15 01:18:07;;;;;;;20.15;11.77;;;8.20;79.60;;;;;;5017029;28;20048;-75
2022/03/15 01:20:33;;;;;;;17.90;11.77;;;8.10;79.60;;;;;;5026921;28;21167;-78
2022/03/15 01:22:59;;;;;;;21.00;13.15;;;8.10;79.50;;;;;;5024190;28;20026;-77
2022/03/15 01:25:25;;;;;;;22.33;13.02;;;8.10;79.50;;;;;;5024955;28;20029;-76
2022/03/15 01:27:52;;;;;;;21.08;12.73;;;8.10;79.60;;;;;;5018970;28;20048;-75
2022/03/15 01:30:18;;;;;;;23.17;13.52;;;8.10;79.60;;;;;;5026368;28;20041;-75
2022/03/15 01:32:43;;;;;;;18.77;12.48;;;8.10;79.70;;;;;;5021584;28;20181;-76
2022/03/15 01:35:09;;;;;;;20.58;14.15;;;8.10;79.70;;;;;;5029186;28;20041;-75
2022/03/15 01:37:35;;;;;;;20.27;12.57;;;8.10;79.80;;;;;;5015907;28;20068;-76
2022/03/15 01:40:01;;;;;;;17.67;12.77;;;8.00;79.90;;;;;;5019184;28;20095;-75
2022/03/15 01:42:26;;;;;;;18.73;13.40;;;8.00;80.00;;;;;;5024532;28;20041;-76
2022/03/15 01:44:52;;;;;;;22.25;13.05;;;7.90;80.00;;;;;;5020996;28;20068;-77
2022/03/15 01:47:19;;;;;;;23.65;13.95;;;7.90;80.10;;;;;;5016889;28;20060;-75
2022/03/15 01:49:44;;;;;;;19.00;13.85;;;7.90;80.20;;;;;;5024410;28;20051;-77
2022/03/15 01:52:13;;;;;;;17.80;13.13;;;7.90;80.20;;;;;;5022364;28;20499;-77
2022/03/15 01:54:40;;;;;;;18.90;13.15;;;7.90;80.20;;;;;;5017494;28;20373;-76
2022/03/15 01:57:07;;;;;;;19.83;12.73;;;7.90;80.30;;;;;;5013560;28;20852;-76
2022/03/15 01:59:35;;;;;;;21.33;13.18;;;7.90;80.20;;;;;;5014038;28;20049;-78
2022/03/15 02:02:01;;;;;;;21.00;14.15;;;8.00;80.20;;;;;;5018917;28;20072;-75
2022/03/15 02:04:26;;;;;;;18.45;12.82;;;7.90;80.20;;;;;;5017431;28;20947;-76
2022/03/15 02:07:05;;;;;;;21.13;13.73;;;7.90;80.30;;;;;;5017723;28;20033;-77
2022/03/15 02:09:31;;;;;;;19.92;13.38;;;7.90;80.20;;;;;;5018771;28;20044;-76
2022/03/15 02:11:57;;;;;;;22.38;12.77;;;7.90;80.20;;;;;;5022985;28;20037;-74
2022/03/15 02:14:24;;;;;;;22.05;13.68;;;7.90;80.20;;;;;;5023316;28;20131;-79
2022/03/15 02:16:49;;;;;;;19.65;12.13;;;7.80;80.30;;;;;;5016827;28;20052;-78
2022/03/15 02:19:15;;;;;;;18.67;12.52;;;7.80;80.30;;;;;;5018023;28;20053;-78
2022/03/15 02:21:41;;;;;;;17.70;13.23;;;7.70;80.30;;;;;;5019265;28;20274;-77
2022/03/15 02:24:06;;;;;;;17.48;12.80;;;7.80;80.40;;;;;;5015966;28;20152;-75
2022/03/15 02:26:32;;;;;;;17.52;12.30;;;7.80;80.40;;;;;;5018279;28;20033;-79
2022/03/15 02:28:58;;;;;;;19.58;12.18;;;7.80;80.40;;;;;;5019205;28;20033;-74
2022/03/15 02:31:24;;;;;;;22.17;12.98;;;7.80;80.20;;;;;;5021004;28;20668;-75
2022/03/15 02:33:50;;;;;;;18.60;12.15;;;7.70;80.20;;;;;;5019593;28;20410;-76
2022/03/15 02:36:16;;;;;;;21.27;13.63;;;7.70;80.20;;;;;;5017413;28;20046;-77
2022/03/15 02:38:43;;;;;;;20.80;13.68;;;7.80;80.10;;;;;;5017468;28;20107;-75
2022/03/15 02:41:08;;;;;;;20.23;12.57;;;7.80;80.00;;;;;;5017845;28;20037;-76
2022/03/15 02:43:34;;;;;;;22.73;12.27;;;7.70;80.00;;;;;;5030417;28;20083;-77
2022/03/15 02:46:00;;;;;;;17.58;11.25;;;7.70;80.10;;;;;;5019636;28;20544;-77
2022/03/15 02:48:26;;;;;;;17.20;11.30;;;7.70;80.00;;;;;;5015985;28;21113;-76
2022/03/15 02:50:51;;;;;;;21.00;11.40;;;7.70;80.10;;;;;;5016278;28;20033;-78
2022/03/15 02:53:17;;;;;;;17.92;12.73;;;7.70;80.20;;;;;;5011545;28;20042;-74
2022/03/15 02:55:43;;;;;;;19.00;12.00;;;7.70;80.20;;;;;;5019616;28;20029;-75
2022/03/15 02:58:09;;;;;;;18.45;11.65;;;7.70;80.30;;;;;;5018910;28;20238;-78
2022/03/15 03:00:35;;;;;;;18.95;12.55;;;7.60;80.30;;;;;;5021806;28;20037;-75
2022/03/15 03:03:02;;;;;;;17.83;12.80;;;7.70;80.20;;;;;;5015245;28;20037;-77
2022/03/15 03:05:27;;;;;;;19.05;12.52;;;7.60;80.10;;;;;;5020140;28;20029;-76
2022/03/15 03:07:53;;;;;;;18.75;12.48;;;7.60;80.10;;;;;;5018734;28;20403;-76
2022/03/15 03:10:20;;;;;;;17.33;12.15;;;7.60;80.20;;;;;;5025642;28;20076;-75
2022/03/15 03:12:47;;;;;;;17.52;12.23;;;7.60;80.20;;;;;;5018944;28;20095;-75
2022/03/15 03:15:13;;;;;;;24.05;12.60;;;7.60;80.20;;;;;;5026308;28;20033;-76
2022/03/15 03:17:42;;;;;;;18.58;12.40;;;7.60;80.20;;;;;;5021985;28;20053;-75
2022/03/15 03:20:13;;;;;;;20.95;13.25;;;7.60;80.20;;;;;;5021672;28;20037;-75
2022/03/15 03:22:40;;;;;;;18.23;11.88;;;7.60;80.20;;;;;;5020261;28;20040;-76
2022/03/15 03:25:06;;;;;;;20.08;12.82;;;7.60;80.40;;;;;;5016780;28;20029;-77
2022/03/15 03:27:33;;;;;;;22.02;12.77;;;7.50;80.50;;;;;;5020513;28;20036;-76
2022/03/15 03:29:59;;;;;;;18.40;13.10;;;7.60;80.50;;;;;;5023847;28;20095;-75
2022/03/15 03:32:25;;;;;;;18.88;13.18;;;7.50;80.40;;;;;;5022898;28;20125;-75
2022/03/15 03:34:52;;;;;;;18.63;13.10;;;7.50;80.50;;;;;;5021298;28;20927;-74
2022/03/15 03:37:18;;;;;;;16.23;12.85;;;7.40;80.60;;;;;;5027443;28;20495;-75
2022/03/15 03:39:43;;;;;;;20.52;13.20;;;7.40;80.70;;;;;;5021446;28;20673;-74
2022/03/15 03:42:09;;;;;;;18.85;12.63;;;7.40;80.80;;;;;;5022524;28;20152;-77
2022/03/15 03:44:36;;;;;;;20.05;12.35;;;7.40;80.90;;;;;;5019591;28;20031;-77
2022/03/15 03:47:03;;;;;;;19.83;12.85;;;7.30;81.10;;;;;;5023087;28;20076;-77
2022/03/15 03:49:31;;;;;;;16.63;12.88;;;7.30;81.20;;;;;;5027149;28;20068;-75
2022/03/15 03:51:58;;;;;;;19.17;12.13;;;7.30;81.20;;;;;;5022536;28;20045;-76
2022/03/15 03:54:24;;;;;;;17.92;12.85;;;7.30;81.20;;;;;;5019384;28;20044;-76
2022/03/15 03:56:50;;;;;;;19.52;13.18;;;7.40;81.30;;;;;;5019883;28;20033;-75
2022/03/15 03:59:16;;;;;;;22.45;12.55;;;7.40;80.90;;;;;;5019005;28;20049;-77
2022/03/15 04:01:43;;;;;;;23.55;13.65;;;7.30;81.10;;;;;;5023708;28;20040;-77
2022/03/15 04:04:10;;;;;;;21.38;13.23;;;7.30;81.30;;;;;;5019149;28;20060;-76
2022/03/15 04:06:36;;;;;;;20.98;13.63;;;7.30;81.40;;;;;;5018989;28;20049;-76
2022/03/15 04:09:04;;;;;;;20.10;13.98;;;7.20;81.60;;;;;;5022347;28;20370;-74
2022/03/15 04:11:31;;;;;;;23.80;14.85;;;7.20;81.70;;;;;;5018341;28;20083;-75
2022/03/15 04:13:59;;;;;;;19.25;13.10;;;7.20;81.70;;;;;;5021858;28;20036;-78
2022/03/15 04:16:25;;;;;;;23.25;13.73;;;7.30;81.70;;;;;;5016812;28;20079;-75
2022/03/15 04:18:51;;;;;;;18.42;12.43;;;7.30;81.70;;;;;;5017317;28;20411;-74
2022/03/15 04:21:17;;;;;;;20.98;13.57;;;7.30;81.70;;;;;;5016445;28;20053;-76
2022/03/15 04:23:42;;;;;;;20.95;13.50;;;7.30;81.70;;;;;;5020569;28;20029;-76
2022/03/15 04:26:08;;;;;;;19.85;13.00;;;7.40;81.70;;;;;;5019045;28;20036;-75
2022/03/15 04:28:33;;;;;;;21.27;14.38;;;7.40;81.60;;;;;;5025413;28;20025;-76
2022/03/15 04:30:59;;;;;;;22.50;13.05;;;7.40;81.50;;;;;;5019481;28;20468;-77
2022/03/15 04:33:25;;;;;;;21.25;13.20;;;7.40;81.50;;;;;;5017114;28;20111;-74
2022/03/15 04:35:50;;;;;;;16.83;13.05;;;7.40;81.50;;;;;;5023495;28;20683;-77
2022/03/15 04:38:16;;;;;;;20.95;13.45;;;7.40;81.40;;;;;;5023287;28;20072;-78
2022/03/15 04:40:42;;;;;;;20.00;13.32;;;7.40;81.30;;;;;;5019635;28;20030;-78
2022/03/15 04:43:08;;;;;;;20.15;12.98;;;7.40;81.30;;;;;;5020528;28;20124;-76
2022/03/15 04:45:34;;;;;;;20.30;12.25;;;7.40;81.30;;;;;;5017330;28;20051;-76
2022/03/15 04:47:59;;;;;;;21.40;13.07;;;7.50;81.20;;;;;;5018970;28;20172;-75
2022/03/15 04:50:25;;;;;;;18.60;12.32;;;7.50;81.10;;;;;;5018574;28;20435;-77
2022/03/15 04:52:51;;;;;;;18.02;12.60;;;7.50;81.00;;;;;;5020430;28;20524;-75
2022/03/15 04:55:16;;;;;;;22.10;13.60;;;7.50;81.00;;;;;;5023269;28;20106;-77
2022/03/15 04:57:42;;;;;;;22.13;13.18;;;7.60;80.80;;;;;;5023669;28;20313;-76
2022/03/15 05:00:09;;;;;;;19.85;12.52;;;7.60;80.60;;;;;;5016183;28;20034;-76
2022/03/15 05:02:41;;;;;;;18.83;12.85;;;7.50;80.50;;;;;;5024121;28;20029;-75
2022/03/15 05:05:07;;;;;;;21.98;12.38;;;7.60;80.50;;;;;;5015794;28;20026;-75
2022/03/15 05:07:33;;;;;;;21.80;12.73;;;7.60;80.40;;;;;;5020420;28;20048;-73
2022/03/15 05:12:43;;;;;;;19.70;12.70;;;7.60;80.40;;;;;;5022856;28;20199;-74
2022/03/15 05:15:09;;;;;;;22.50;13.07;;;7.60;80.20;;;;;;5020859;28;20129;-74
2022/03/15 05:17:36;;;;;;;22.75;12.90;;;7.60;80.30;;;;;;5019471;28;20041;-74
2022/03/15 05:20:05;;;;;;;21.55;11.90;;;7.60;80.30;;;;;;5020013;28;20031;-77
2022/03/15 05:22:33;;;;;;;24.13;13.32;;;7.60;80.10;;;;;;5021136;28;20047;-75
2022/03/15 05:25:00;;;;;;;17.92;12.77;;;7.60;79.90;;;;;;5016696;28;20037;-74
2022/03/15 05:27:26;;;;;;;19.05;14.05;;;7.70;79.80;;;;;;5020202;28;20095;-75
2022/03/15 05:29:52;;;;;;;21.05;13.55;;;7.70;79.80;;;;;;5021269;28;20674;-75
2022/03/15 05:32:18;;;;;;;23.70;13.50;;;7.70;79.80;;;;;;5019879;28;20500;-74
2022/03/15 05:34:43;;;;;;;22.45;13.48;;;7.70;79.80;;;;;;5016066;28;20084;-74
2022/03/15 05:37:09;;;;;;;20.95;13.27;;;7.70;79.80;;;;;;5019132;28;20033;-76
2022/03/15 05:39:36;;;;;;;20.92;12.70;;;7.70;79.70;;;;;;5016751;28;20076;-73
2022/03/15 05:42:02;;;;;;;19.70;13.10;;;7.70;79.70;;;;;;5019341;28;20414;-74
2022/03/15 05:44:28;;;;;;;18.33;11.77;;;7.70;79.70;;;;;;5050549;28;20068;-76
2022/03/15 05:46:54;;;;;;;21.73;12.65;;;7.60;79.70;;;;;;5018077;28;20478;-76
2022/03/15 05:49:20;;;;;;;22.13;12.63;;;7.60;79.70;;;;;;5009362;28;20049;-75
2022/03/15 05:51:45;;;;;;;17.48;12.30;;;7.60;79.80;;;;;;5015127;28;20021;-76
2022/03/15 05:54:11;;;;;;;18.30;11.63;;;7.60;79.80;;;;;;5013701;28;20041;-76
2022/03/15 05:56:39;;;;;;;22.65;13.68;;;7.60;79.70;;;;;;5024552;28;20445;-74
2022/03/15 05:59:05;;;;;;;22.38;12.18;;;7.70;79.70;;;;;;5017075;28;20043;-75
2022/03/15 06:01:31;;;;;;;18.38;12.10;;;7.60;79.70;;;;;;5015672;28;20033;-76
2022/03/15 06:03:56;;;;;;;20.73;13.80;;;7.70;79.70;;;;;;5015007;28;20037;-74
2022/03/15 06:06:24;;;;;;;22.67;12.32;;;7.70;79.80;;;;;;5011856;28;20460;-76
2022/03/15 06:08:51;;;;;;;20.23;11.80;;;7.60;79.80;;;;;;5012714;28;20038;-75
2022/03/15 06:11:19;;;;;;;23.20;11.57;;;7.70;79.90;;;;;;5013737;28;20047;-74
2022/03/15 06:13:44;;;;;;;20.00;12.15;;;7.70;79.70;;;;;;5017772;28;20037;-74
2022/03/15 06:16:11;;;;;;;19.60;11.07;;;7.80;79.70;;;;;;5015182;28;20044;-75
2022/03/15 06:18:37;;;;;;;18.63;10.75;;;7.80;79.50;;;;;;5014612;28;20437;-75
2022/03/15 06:21:03;;;;;;;22.27;10.68;;;7.90;79.40;;;;;;5012005;28;20640;-78
2022/03/15 06:23:29;;;;;;;18.17;9.98;;;7.90;79.40;;;;;;5012080;28;20041;-75
2022/03/15 06:25:54;;;;;;;17.55;10.48;;;8.00;79.30;;;;;;5012367;28;20261;-74
2022/03/15 06:28:20;;;;;;;16.13;9.82;;;8.00;79.30;;;;;;5013737;28;20200;-75
2022/03/15 06:30:46;;;;;;;18.33;10.13;;;8.10;79.20;;;;;;5019395;28;20033;-74
2022/03/15 06:33:13;;;;;;;16.45;8.90;;;8.10;79.30;;;;;;5016876;28;20029;-74
2022/03/15 06:35:38;;;;;;;17.13;8.85;;;8.10;79.50;;;;;;5018682;28;20488;-75
2022/03/15 06:38:04;;;;;;;18.25;8.77;;;8.20;79.60;;;;;;5015493;28;20099;-74
2022/03/15 06:40:32;;;;;;;14.25;8.27;;;8.20;79.60;;;;;;5017352;28;20030;-75
2022/03/15 06:42:58;;;;;;;16.40;7.95;;;8.20;79.70;;;;;;5020432;28;20044;-74
2022/03/15 06:45:24;;;;;;;15.63;7.50;;;8.30;80.10;;;;;;5015740;28;20037;-74
2022/03/15 06:47:51;;;;;;;16.25;7.45;;;8.30;80.80;;;;;;5020680;28;20056;-75
2022/03/15 06:50:16;;;;;;;18.25;7.05;;;8.40;81.40;;;;;;5012780;28;20044;-76
2022/03/15 06:52:45;;;;;;;12.88;8.05;;;8.50;81.80;;;;;;5014879;28;20061;-75
2022/03/15 06:55:12;;;;;;;14.88;7.93;;;8.60;81.70;;;;;;5021100;28;20319;-74
2022/03/15 06:57:38;;;;;;;15.70;8.27;;;8.60;81.80;;;;;;5015370;28;20095;-74
2022/03/15 07:00:05;;;;;;;17.95;10.73;;;8.60;81.90;;;;;;5019696;28;20065;-76
2022/03/15 07:02:31;;;;;;;15.15;9.25;;;8.60;81.60;;;;;;5012732;28;20572;-74
2022/03/15 07:04:57;;;;;;;17.77;9.82;;;8.60;81.50;;;;;;5013794;28;20060;-74
2022/03/15 07:07:23;;;;;;;19.25;10.52;;;8.60;81.50;;;;;;5024466;28;20507;-75
2022/03/15 07:09:48;;;;;;;15.63;9.38;;;8.60;81.50;;;;;;5013936;28;20132;-76
2022/03/15 07:12:14;;;;;;;19.63;10.85;;;8.60;81.40;;;;;;5016022;28;20098;-74
2022/03/15 07:14:40;;;;;;;13.88;9.05;;;8.70;81.60;;;;;;5027549;28;20037;-75
2022/03/15 07:17:05;;;;;;;16.50;9.70;;;8.70;82.40;;;;;;5025136;28;20431;-75
2022/03/15 07:19:31;;;;;;;17.70;8.20;;;8.70;83.20;;;;;;5018447;28;20118;-78
2022/03/15 07:21:57;;;;;;;15.13;8.45;;;8.80;83.40;;;;;;5022745;28;20108;-75
2022/03/15 07:24:22;;;;;;;9.23;4.50;;;8.90;83.80;;;;;;5017047;28;20037;-76
2022/03/15 07:26:48;;;;;;;10.95;4.78;;;9.00;85.20;;;;;;5019678;28;20037;-76
2022/03/15 07:29:14;;;;;;;12.10;6.32;;;9.10;85.30;;;;;;5016345;28;20600;-75
2022/03/15 07:31:40;;;;;;;14.32;9.25;;;9.20;85.20;;;;;;5020113;28;20815;-76
2022/03/15 07:34:05;;;;;;;14.88;7.47;;;9.10;84.60;;;;;;5017410;28;20029;-76
2022/03/15 07:36:32;;;;;;;8.07;4.55;;;9.00;84.90;;;;;;5015587;28;20377;-74
2022/03/15 07:38:58;;;;;;;10.23;4.22;;;9.10;85.90;;;;;;5026102;28;20033;-74
2022/03/15 07:41:23;;;;;;;11.65;5.47;;;9.20;86.60;;;;;;5023855;28;20029;-75
2022/03/15 07:43:50;;;;;;;11.25;6.05;;;9.30;86.80;;;;;;5025774;28;20479;-76
2022/03/15 07:46:16;;;;;;;12.80;6.47;;;9.30;87.10;;;;;;5010667;28;20560;-75
2022/03/15 07:48:41;;;;;;;10.75;5.03;;;9.30;87.20;;;;;;5023302;28;20436;-73
2022/03/15 07:51:07;;;;;;;12.75;5.70;;;9.40;87.40;;;;;;5025843;28;20537;-74
2022/03/15 07:53:33;;;;;;;12.68;6.28;;;9.40;87.50;;;;;;5020792;28;20039;-74
2022/03/15 07:56:01;;;;;;;13.05;6.28;;;9.30;87.60;;;;;;5026325;28;20124;-74
2022/03/15 07:58:27;;;;;;;13.43;6.28;;;9.30;87.90;;;;;;5021793;28;20049;-73
2022/03/15 08:00:56;;;;;;;11.57;6.57;;;9.30;87.90;;;;;;5017168;28;20188;-73
2022/03/15 08:03:23;;;;;;;13.13;7.25;;;9.30;87.90;;;;;;5028824;28;20622;-73
2022/03/15 08:05:50;;;;;;;14.85;6.35;;;9.30;88.00;;;;;;5026490;28;20071;-74
2022/03/15 08:08:15;;;;;;;10.70;6.35;;;9.40;88.00;;;;;;5026137;28;20273;-74
2022/03/15 08:10:43;;;;;;;12.02;6.50;;;9.40;88.00;;;;;;5025254;28;20463;-75
2022/03/15 08:13:09;;;;;;;12.00;6.85;;;9.40;88.10;;;;;;5017708;28;20453;-74
2022/03/15 08:15:35;;;;;;;10.65;6.53;;;9.30;88.10;;;;;;5019150;28;20041;-73
2022/03/15 08:18:06;;;;;;;11.38;6.25;;;9.30;88.10;;;;;;5020675;28;20052;-73
2022/03/15 08:20:33;;;;;;;9.93;6.00;;;9.40;88.10;;;;;;5027752;28;20476;-73
2022/03/15 08:23:00;;;;;;;11.63;5.90;;;9.40;88.10;;;;;;5020325;28;20033;-74
2022/03/15 08:25:26;;;;;;;13.60;9.05;;;9.40;88.10;;;;;;5022944;28;20029;-72
2022/03/15 08:27:53;;;;;;;16.15;10.15;;;9.40;88.00;;;;;;5021610;28;20030;-73
2022/03/15 08:30:20;;;;;;;17.90;11.98;;;9.40;88.20;;;;;;5022633;28;20029;-73
2022/03/15 08:32:46;;;;;;;15.57;9.35;;;9.40;88.30;;;;;;5022760;28;20241;-73
2022/03/15 08:35:12;;;;;;;10.57;7.00;;;9.40;88.30;;;;;;5016011;28;20061;-73
2022/03/15 08:37:38;;;;;;;11.35;7.43;;;9.50;88.40;;;;;;5025751;28;20040;-73
2022/03/15 08:40:06;;;;;;;10.73;6.65;;;9.60;88.40;;;;;;5020159;28;20508;-75
2022/03/15 08:42:32;;;;;;;10.93;6.82;;;9.50;88.30;;;;;;5021394;28;20075;-74
2022/03/15 08:44:58;;;;;;;11.38;6.80;;;9.60;88.40;;;;;;5021793;28;20519;-75
2022/03/15 08:47:23;;;;;;;15.25;7.30;;;9.60;88.40;;;;;;5019983;28;20124;-74
2022/03/15 08:49:49;;;;;;;12.18;7.25;;;9.60;88.30;;;;;;5026129;28;20548;-75
2022/03/15 08:52:15;;;;;;;14.38;7.13;;;9.60;88.30;;;;;;5019343;28;20030;-74
2022/03/15 08:54:40;;;;;;;12.40;8.65;;;9.60;88.30;;;;;;5022141;28;20401;-74
2022/03/15 08:57:07;;;;;;;15.05;9.20;;;9.60;88.20;;;;;;5019466;28;20033;-74
2022/03/15 08:59:32;;;;;;;11.57;7.65;;;9.50;87.90;;;;;;5039423;28;20029;-73
2022/03/15 09:01:59;;;;;;;14.73;9.23;;;9.50;88.10;;;;;;5042803;28;20029;-75
2022/03/15 09:04:25;;;;;;;18.70;9.38;;;9.60;88.10;;;;;;5046890;28;20079;-73
2022/03/15 09:06:51;;;;;;;16.30;9.43;;;9.50;87.90;;;;;;5040951;28;20254;-73
2022/03/15 09:09:21;;;;;;;13.88;10.52;;;9.30;88.20;;;;;;5037423;28;20041;-74
2022/03/15 09:11:47;;;;;;;16.23;10.48;;;9.20;88.60;;;;;;5020666;28;20540;-72
2022/03/15 09:14:14;;;;;;;16.13;11.05;;;9.10;88.90;;;;;;5021968;28;20034;-73
2022/03/15 09:16:40;;;;;;;20.88;15.35;;;9.10;89.20;;;;;;5032337;28;20119;-74
2022/03/15 09:19:06;;;;;;;22.63;16.10;;;9.20;89.30;;;;;;5032124;28;20041;-74
2022/03/15 09:21:32;;;;;;;21.33;13.90;;;9.20;89.10;;;;;;5028559;28;20025;-74
2022/03/15 09:23:58;;;;;;;18.27;12.65;;;9.30;89.20;;;;;;5021274;28;20547;-75
2022/03/15 09:26:27;;;;;;;18.17;11.95;;;9.30;89.20;;;;;;5022495;28;20041;-75
2022/03/15 09:28:53;;;;;;;14.98;11.68;;;9.30;89.10;;;;;;5017150;28;20045;-75
2022/03/15 09:31:22;;;;;;;17.85;11.73;;;9.30;89.00;;;;;;5019118;28;20061;-74
2022/03/15 09:33:47;;;;;;;20.35;12.38;;;9.20;88.90;;;;;;5022304;28;20911;-75
2022/03/15 09:36:15;;;;;;;24.27;12.32;;;9.20;89.20;;;;;;5021630;28;20363;-74
2022/03/15 09:38:41;;;;;;;23.77;13.05;;;9.10;89.30;;;;;;5021695;28;20450;-77
2022/03/15 09:41:07;;;;;;;22.48;13.63;;;9.10;89.70;;;;;;5021775;28;20525;-74
2022/03/15 09:43:41;;;;;;;19.52;11.75;;;9.10;89.80;;;;;;5019321;28;20771;-76
2022/03/15 09:46:08;;;;;;;19.38;11.70;;;9.10;89.60;;;;;;5020323;28;20108;-75
2022/03/15 09:48:34;;;;;;;21.70;12.63;;;9.10;89.50;;;;;;5024262;28;20249;-73
2022/03/15 09:51:04;;;;;;;18.23;12.75;;;9.10;89.20;;;;;;5027593;28;20036;-74
2022/03/15 09:53:34;;;;;;;19.08;11.52;;;9.10;89.20;;;;;;5031027;28;20528;-74
2022/03/15 09:56:00;;;;;;;20.95;12.40;;;9.00;89.20;;;;;;5035551;28;20025;-74
2022/03/15 09:58:25;;;;;;;18.55;12.13;;;9.00;89.40;;;;;;5026012;28;20122;-74
2022/03/15 10:00:54;;;;;;;19.38;13.20;;;9.10;89.20;;;;;;5024080;28;20026;-74
2022/03/15 10:03:20;;;;;;;19.92;12.60;;;9.10;89.20;;;;;;5022790;28;20048;-73
2022/03/15 10:05:46;;;;;;;20.20;12.60;;;9.20;89.00;;;;;;5021262;28;20435;-74
2022/03/15 10:08:15;;;;;;;18.20;12.05;;;9.40;89.00;;;;;;5026454;28;20457;-74
2022/03/15 10:10:41;;;;;;;17.67;11.45;;;9.50;88.40;;;;;;5026961;28;20393;-74
2022/03/15 10:13:08;;;;;;;24.05;12.95;;;9.40;87.60;;;;;;5022230;28;20480;-75
2022/03/15 10:15:34;;;;;;;17.85;12.10;;;9.40;87.60;;;;;;5022346;28;20036;-74
2022/03/15 10:18:04;;;;;;;17.77;12.40;;;9.50;87.40;;;;;;5017189;28;20037;-76
2022/03/15 10:20:41;;;;;;;18.08;12.10;;;9.60;87.10;;;;;;5017702;28;20044;-77
2022/03/15 10:23:10;;;;;;;21.83;12.30;;;9.80;87.10;;;;;;5019823;28;20037;-74
2022/03/15 10:25:36;;;;;;;16.00;11.35;;;10.00;86.60;;;;;;5017286;28;20558;-75
2022/03/15 10:28:05;;;;;;;20.25;11.30;;;10.00;85.70;;;;;;5018532;28;20154;-74
2022/03/15 10:30:31;;;;;;;22.55;11.88;;;10.00;85.80;;;;;;5025103;28;20491;-75
2022/03/15 10:32:57;;;;;;;19.13;11.25;;;10.10;85.50;;;;;;5032709;28;20033;-76
2022/03/15 10:35:31;;;;;;;21.42;11.35;;;10.20;85.60;;;;;;5020527;28;20087;-76
2022/03/15 10:37:59;;;;;;;20.67;11.82;;;10.20;83.60;;;;;;5023546;28;20050;-78
2022/03/15 10:40:42;;;;;;;19.55;11.73;;;10.10;84.10;;;;;;5015156;28;20155;-76
2022/03/15 10:43:28;;;;;;;19.83;12.20;;;10.20;84.10;;;;;;5023647;28;20051;-81
2022/03/15 10:45:57;;;;;;;18.63;11.63;;;10.40;84.10;;;;;;5022205;28;20037;-75
2022/03/15 10:48:25;;;;;;;20.00;11.80;;;10.60;82.20;;;;;;5050314;28;20078;-76
2022/03/15 10:50:58;;;;;;;16.50;11.27;;;10.60;81.70;;;;;;5022301;28;20419;-78
2022/03/15 10:53:35;;;;;;;18.60;11.50;;;10.70;81.80;;;;;;5017655;28;20148;-75
2022/03/15 10:56:20;;;;;;;17.50;11.35;;;10.90;80.60;;;;;;5015526;28;20045;-74
2022/03/15 10:58:47;;;;;;;19.20;12.13;;;11.00;80.50;;;;;;5046503;28;20075;-76
2022/03/15 11:01:15;;;;;;;17.05;11.80;;;11.20;80.30;;;;;;5021408;28;20048;-76
2022/03/15 11:03:59;;;;;;;17.83;11.23;;;11.30;78.80;;;;;;5018783;28;20038;-75
2022/03/15 11:06:43;;;;;;;20.85;11.95;;;11.10;78.50;;;;;;5015497;28;20158;-74
2022/03/15 11:09:24;;;;;;;15.98;9.70;;;11.60;79.90;;;;;;5016942;28;20045;-75
2022/03/15 11:12:00;;;;;;;16.73;10.18;;;12.00;77.30;;;;;;5019511;28;20033;-79
2022/03/15 11:14:40;;;;;;;17.23;10.63;;;12.30;75.50;;;;;;5017209;28;20048;-76
2022/03/15 11:17:13;;;;;;;17.10;9.90;;;12.60;75.00;;;;;;5018652;28;20053;-75
2022/03/15 11:19:43;;;;;;;14.82;9.93;;;12.70;73.50;;;;;;5015452;28;20148;-79
2022/03/15 11:22:09;;;;;;;18.05;10.02;;;12.40;73.90;;;;;;5022790;28;20242;-79
2022/03/15 11:24:41;;;;;;;14.10;8.98;;;12.60;75.30;;;;;;5028592;28;20404;-75
2022/03/15 11:27:08;;;;;;;14.18;8.48;;;13.10;73.50;;;;;;5019684;28;20460;-75
2022/03/15 11:29:36;;;;;;;16.10;8.57;;;13.30;71.20;;;;;;5018799;28;20036;-77
2022/03/15 11:32:02;;;;;;;13.75;7.93;;;13.60;71.90;;;;;;5026680;28;20065;-76
2022/03/15 11:34:29;;;;;;;18.00;8.68;;;13.90;70.70;;;;;;5027525;28;20032;-76
2022/03/15 11:36:57;;;;;;;11.25;7.97;;;13.60;68.90;;;;;;5022694;28;20041;-76
2022/03/15 11:39:24;;;;;;;12.07;7.68;;;13.50;70.80;;;;;;5017891;28;20249;-75
2022/03/15 11:41:50;;;;;;;13.43;6.95;;;13.60;70.30;;;;;;5023066;28;20128;-77
2022/03/15 11:44:36;;;;;;;15.77;8.20;;;13.60;68.00;;;;;;5020367;28;20056;-75
2022/03/15 11:47:15;;;;;;;13.10;7.88;;;13.60;69.40;;;;;;5019905;28;20172;-76
2022/03/15 11:49:48;;;;;;;11.80;6.90;;;13.70;69.20;;;;;;5015639;28;20360;-76
2022/03/15 11:52:32;;;;;;;12.25;7.05;;;13.80;68.30;;;;;;5024511;28;20239;-75
2022/03/15 11:55:29;;;;;;;10.02;6.70;;;14.10;68.60;;;;;;5019889;28;20433;-75
2022/03/15 11:58:04;;;;;;;9.05;6.00;;;14.20;67.30;;;;;;5026609;28;20431;-77
2022/03/15 12:00:50;;;;;;;12.38;6.82;;;14.10;67.30;;;;;;5018407;28;20072;-79
2022/03/15 12:03:18;;;;;;;11.45;6.82;;;14.20;67.20;;;;;;5031456;28;20017;-79
2022/03/15 12:05:53;;;;;;;10.32;6.50;;;14.40;66.90;;;;;;5022029;28;20595;-75
2022/03/15 12:08:22;;;;;;;9.85;6.55;;;14.60;66.50;;;;;;5029848;28;20033;-78
2022/03/15 12:11:00;;;;;;;12.27;7.75;;;14.60;66.40;;;;;;5022426;28;20388;-75
2022/03/15 12:13:42;;;;;;;9.48;7.22;;;14.70;66.10;;;;;;5020372;28;20028;-76
2022/03/15 12:16:19;;;;;;;9.80;6.85;;;14.50;65.30;;;;;;5022219;28;20037;-75
2022/03/15 12:18:53;;;;;;;11.07;6.97;;;14.40;65.10;;;;;;5030957;28;20083;-74
2022/03/15 12:21:25;;;;;;;13.07;8.13;;;14.20;66.10;;;;;;5010316;28;20165;-74
2022/03/15 12:23:54;;;;;;;9.90;7.38;;;14.30;66.20;;;;;;5017466;28;20411;-76
2022/03/15 12:26:22;;;;;;;11.50;7.57;;;14.30;66.90;;;;;;5015416;28;20034;-73
2022/03/15 12:29:12;;;;;;;12.32;9.13;;;14.50;66.20;;;;;;5011440;28;20108;-75
2022/03/15 12:31:40;;;;;;;12.55;8.70;;;14.60;65.80;;;;;;5021295;28;20044;-73
2022/03/15 12:34:09;;;;;;;10.70;8.00;;;14.60;65.80;;;;;;5015532;28;20021;-74
2022/03/15 12:36:39;;;;;;;13.60;9.63;;;14.40;66.10;;;;;;5018480;28;20125;-75
2022/03/15 12:39:11;;;;;;;13.73;8.95;;;14.40;65.90;;;;;;5019302;28;20480;-74
2022/03/15 12:41:37;;;;;;;10.43;8.02;;;14.40;66.80;;;;;;5021660;28;20407;-76
2022/03/15 12:44:03;;;;;;;11.25;8.73;;;14.20;66.40;;;;;;5016628;28;20049;-77